Morell, Canada
Current Conditions -  °F | °C
As of 11:21 PM on Friday 28 Nov 2014 (Local Time) from CYYG Reporting Station
Snow Showers Snow Showers  
Wind Chill: 15°   Ceiling: 3200
Heat Index: 25°   Visibility: 2.5mi
Dew Point: 21°   Wind: 9mph
Humidity: 86%   Direction: 300°WNW
Pressure: 29.95"   Gusts: NA
Location:  46.42°N, 62.7°W
Report Text: CYYG 290321Z 30008KT 2 1/2SM -SHSN OVC032 M04/M06 A2995 RMK SC8 SLP144
Loading
Personal Weather Stations






























Interactive Weather Map New forecast layout! Learn more

10-Day Weather Forecast

Advertisements
Track Severe Weather on mobile